Pinehurst Half Marathon 2018

# of participants: 526# of finishers: 438last updated: 2/15/2019 12:02 pm
Result Questions?
Award Finish Video Bib First Name Last Name Gun Time Elapsed Time Pace Category Cat Rank Gender Gen Rank Age Age Group AG Rank City ST
View Video 74 DUANE PATIN 22:15.91 22:15.90 7:10/mile 5K 1 M 1 48 45-49 1 SANFORD NC
View Video 42 JACOB KIRBY 23:19.22 23:16.10 7:30/mile 5K 2 M 2 36 35-39 1 PINEHURST NC
View Video 91 TIA BENAVIDES 23:16.62 23:16.61 7:30/mile 5K 3 F 1 19 1-19 1 SANFORD NC
View Video 45 BRANT MCWILLIAMS 26:57.59 26:15.21 8:28/mile 5K 4 M 3 39 35-39 2 ABERDEEN NC
View Video 31 ROBERT HENSLEY 27:31.58 27:28.27 8:51/mile 5K 5 M 4 53 50-54 1 DUNBAR WV
View Video 39 NICHOLE JACKSON 27:40.68 27:32.19 8:52/mile 5K 6 F 2 38 35-39 1 FAYETTEVILLE NC
View Video 30 GREG HAENEL 28:24.03 27:58.10 9:01/mile 5K 7 M 5 52 50-54 2 GRAHAM NC
View Video 3 DANIEL ATAMUNCHUK 28:29.22 28:09.07 9:04/mile 5K 8 M 6 38 35-39 3 ABERDEEN NC
View Video 38 JAY JACKSON 28:22.27 28:13.65 9:06/mile 5K 9 M 7 36 35-39 4 FAYETTEVILLE NC
View Video 71 ROBBIE ZALZNECK 29:03.62 28:22.72 9:09/mile 5K 10 M 8 46 45-49 2 PINEHURST NC
View Video 37 STEVE ISLEY 28:28.29 28:25.36 9:10/mile 5K 11 M 9 47 45-49 3 OAK ISLAND NC
View Video 90 MATT LOUGHEED 29:06.88 28:32.51 9:12/mile 5K 12 M 10 34 30-34 1 ELKTON MD
View Video 1 HALEY ALLEN 28:57.94 28:57.93 9:20/mile 5K 13 F 3 22 20-24 1 GREENVILLE NC
View Video 55 DUSTIN PIERSON 30:07.64 30:02.63 9:41/mile 5K 14 M 11 34 30-34 2 RALEIGH NC
View Video 25 SCOTT GERBEREUX 30:39.02 30:27.67 9:49/mile 5K 15 M 12 34 30-34 3 PINEHURST NC
View Video 8 MARRI BRACKMAN 31:49.24 31:20.17 10:06/mile 5K 16 F 4 32 30-34 1 PINEHURST NC
View Video 28 GREG GRIMSHAW 32:34.38 32:14.78 10:24/mile 5K 17 M 13 48 45-49 4 PINEHURST NC
View Video 92 JASON EGAN 32:44.01 32:16.12 10:24/mile 5K 18 M 14 43 40-44 1 CAPE CARTERET NC
View Video 75 MELBA RIBEIRO 33:27.79 32:33.42 10:30/mile 5K 19 F 5 45 45-49 1 CARRBORO NC
View Video 85 JENNY ELLER 33:25.18 33:06.30 10:40/mile 5K 20 F 6 37 35-39 2 CHAPEL HILL NC
View Video 93 DEBBI CLARKE 33:41.79 33:38.35 10:51/mile 5K 21 F 7 46 45-49 2 RALEIGH NC
View Video 70 EMILY ZALZNECK 34:41.82 33:58.76 10:57/mile 5K 22 F 8 43 40-44 1 PINEHURST NC
View Video 89 TERRI RYAN-LIPPS 34:05.63 34:01.62 10:58/mile 5K 23 F 9 49 45-49 3 RALEIGH NC
View Video 24 DIANE GERBEREUX 35:01.42 34:49.97 11:14/mile 5K 24 F 10 32 30-34 2 PINEHURST NC
View Video 53 GAY PADGETT 35:27.99 35:05.61 11:19/mile 5K 25 F 11 54 50-54 1 PINEHURST NC
View Video 41 AMANDA JONES 35:27.55 35:15.12 11:22/mile 5K 26 F 12 26 25-29 1 GOLDSBORO NC
View Video 46 ALEXIS MILLER 35:28.59 35:15.70 11:22/mile 5K 27 F 13 27 25-29 2 SANFORD NC
View Video 12 CYNTHIA CLARIDGE. 36:01.65 35:40.19 11:30/mile 5K 28 F 14 34 30-34 3 PINEHURST NC
View Video 13 HARLAN CLARIDGE. 36:02.22 35:41.47 11:30/mile 5K 29 M 15 8 1-19 1 PINEHURST NC
View Video 60 TAMMY QUESENBERRY 36:42.88 36:36.72 11:48/mile 5K 30 F 15 52 50-54 2 HILLSVILLE VA
View Video 11 CADENCE CLARIDGE. 37:47.36 37:25.67 12:04/mile 5K 31 F 16 11 1-19 2 PINEHURST NC
View Video 14 JEREMY CLARIDGE. 37:48.03 37:27.43 12:04/mile 5K 32 M 16 35 35-39 5 PINEHURST NC
View Video 61 ASHLEY ROBINSON 37:58.85 37:41.91 12:09/mile 5K 33 F 17 13 1-19 3 WEST END NC
View Video 43 JENNY LEGGE 38:24.37 37:43.04 12:10/mile 5K 34 F 18 38 35-39 3 BURLINGTON NC
View Video 35 ADAM +AJ+ HOVERMALE JR 38:55.26 38:24.47 12:23/mile 5K 35 M 17 11 1-19 2 LEXINGTON KY
View Video 21 ALISON ESTES 39:29.98 38:34.28 12:26/mile 5K 36 F 19 58 55-59 1 PINEHURST NC
View Video 17 JENNIE CUNDIFF 39:28.18 38:36.27 12:27/mile 5K 37 F 20 39 35-39 4 FUQUAY VARINA NC
View Video 80 JAKE MOUBRY 39:20.26 39:08.77 12:37/mile 5K 38 M 18 15 1-19 3 PINEHURST NC
View Video 48 AMY MOUBRY 39:21.10 39:09.40 12:37/mile 5K 39 F 21 46 45-49 4 PINEHURST NC
View Video 503 STEPHEN BARRY 39:43.62 39:42.86 6:24/mile 10K 1 M 1 39 35-39 1 WASHINGTON DC
View Video 57 JOANNA PRENTICE 41:02.14 40:14.16 12:58/mile 5K 40 F 22 45 45-49 5 STALLINGS NC
View Video 66 TWILA TUXBURY 40:53.20 40:30.73 13:04/mile 5K 41 F 23 57 55-59 2 PINEHURST NC
View Video 526 SCOTT DILLING 41:09.07 41:06.75 6:37/mile 10K 2 M 2 50 50-54 1 OAK ISLAND NC
View Video 34 EMILY HOVERMALE 42:29.87 41:58.73 13:32/mile 5K 42 F 24 36 35-39 5 LEXINGTON KY
View Video 67 KELSEY VOSS 42:30.31 41:59.12 13:32/mile 5K 43 F 25 28 25-29 3 PINEHURST NC
View Video 50 NEAL NELSON 42:44.35 41:59.33 13:32/mile 5K 44 M 19 37 35-39 6 LEXINGTON SC
View Video 49 HALEY NELSON 42:45.12 41:59.65 13:32/mile 5K 45 F 26 27 25-29 4 LEXINGTON SC
View Video 76 KIMBERLY BRYAN 42:53.02 42:02.18 13:33/mile 5K 46 F 27 47 45-49 6 WHISPERING PINES NC
View Video 562 CRAIG MOREHEAD 42:18.23 42:15.98 6:49/mile 10K 3 M 3 34 30-34 1 VASS NC
View Video 4 LORI BALDWIN 42:29.72 42:20.34 13:39/mile 5K 47 F 28 36 35-39 6 LEWISBURG WV
View Video 7 CHRISTI BRACEY 42:43.34 42:21.97 13:39/mile 5K 48 F 29 22 20-24 2 WEST END NC
View Video 83 KIMBERLY KNAPP 43:04.76 42:55.76 13:50/mile 5K 49 F 30 45 45-49 7 PINEHURST NC
View Video 32 KELLY HIGH 43:49.07 43:10.57 13:55/mile 5K 50 F 31 47 45-49 8 PINEHURST NC
View Video 601 ARTHUR BETHLEHEM 43:25.11 43:25.10 7:00/mile 10K 4 M 4 45 45-49 1 SPRING LAKE NC
View Video 81 LYNN GIVEN 45:02.36 44:12.54 14:15/mile 5K 51 F 32 54 50-54 3 TEGA CAY SC
View Video 22 DEB FITZGERALD 44:57.73 44:34.67 14:22/mile 5K 52 F 33 65 65-69 1 PINEHURST NC
View Video 101 SYDNEY DUNNAM 45:02.66 45:02.66 14:31/mile 5K 53 F 34 24 20-24 3 PINEHURST NC
View Video 100 DANA PROCTER 45:03.69 45:03.69 14:32/mile 5K 54 F 35 34 30-34 4 PINEHURST NC
View Video 69 MARYELLEN WINN 45:40.70 45:21.93 14:38/mile 5K 55 F 36 63 60-64 1 COATESVILLE PA
View Video 572 JULIE SHARRER 46:01.98 45:58.09 7:24/mile 10K 5 F 1 33 30-34 1 SOUTHERN PNES NC
View Video 516 DAVID CATRON 46:25.13 46:20.88 7:28/mile 10K 6 M 5 41 40-44 1 SOUTHERN PINES NC
View Video 16 DONNA CROOK 48:21.97 46:42.14 15:03/mile 5K 56 F 37 61 60-64 2 CARY NC
View Video 15 BRYAN CROOK 48:21.89 46:46.23 15:05/mile 5K 57 M 20 62 60-64 1 CARY NC
View Video 515 TANNER CAPPS 47:00.86 46:48.83 7:33/mile 10K 7 M 6 35 35-39 2 LAURINBURG NC
View Video 27 ASHLEY GRAHAM 47:28.12 47:08.55 15:12/mile 5K 58 F 38 32 30-34 5 ABERDEEN NC
View Video 20 NICOLE DROZ 47:28.10 47:09.12 15:12/mile 5K 59 F 39 38 35-39 7 ABERDEEN NC
View Video 565 JENNY PRITCHARD 47:43.59 47:34.65 7:40/mile 10K 8 F 2 38 35-39 1 PINEHURST NC
View Video 52 BRUCE OSBORNE 48:29.99 47:44.62 15:24/mile 5K 60 M 21 70 70-98 1 PINEHURST NC
View Video 44 DEBBIE LEVY 48:37.18 48:27.09 15:37/mile 5K 61 F 40 64 60-64 3 PINEHURST NC
View Video 501 DAVID AROUT 48:36.28 48:30.14 7:49/mile 10K 9 M 7 58 55-59 1 RALEIGH NC
View Video 587 CHRISTOPHER WILLIS 48:34.90 48:30.53 7:49/mile 10K 10 M 8 41 40-44 2 PINEHURST NC
View Video 595 GABRIELLE SCHIPPRACK 48:41.18 48:34.04 7:50/mile 10K 11 F 3 55 55-59 1 RALEIGH NC
View Video 505 TIFFANY BILDERBACK 49:14.87 49:11.95 7:56/mile 10K 12 F 4 34 30-34 2 FAYETTEVILLE NC
View Video 54 BRITTNEY PAINTER 49:42.25 49:22.07 15:55/mile 5K 62 F 41 35 35-39 8 ABERDEEN NC
View Video 535 BOB GEHAN 49:34.96 49:30.86 7:59/mile 10K 13 M 9 40 40-44 3 PINEHURST NC
View Video 40 MIANDA JOHNSON 50:11.66 49:39.14 16:01/mile 5K 63 F 42 37 35-39 9 WINSTON SALEM NC
View Video 508 MICHAEL BRACKMAN 50:11.36 49:43.59 8:01/mile 10K 14 M 10 34 30-34 2 PINEHURST NC
View Video 563 JULIA MULNICK 50:35.90 50:29.14 8:08/mile 10K 15 F 5 45 45-49 1 RALEIGH NC
View Video 530 DEREK FLAHERTY 51:25.26 50:32.45 8:09/mile 10K 16 M 11 49 45-49 2 PITTSBORO NC
View Video 59 DAVID QUESENBERRY 51:31.28 51:24.03 16:34/mile 5K 64 M 22 54 50-54 3 HILLSVILLE VA
View Video 577 ABBIE STANLEY 51:43.66 51:35.92 8:19/mile 10K 17 F 6 41 40-44 1 MORRISVILLE NC
View Video 547 GARY HIGH 53:03.36 52:26.21 8:27/mile 10K 18 M 12 53 50-54 2 PINEHURST NC
View Video 554 MIKE LIPPS 52:48.24 52:44.49 8:30/mile 10K 19 M 13 47 45-49 3 RALEIGH NC
View Video 593 JOHN MCDONALD 53:12.14 52:52.06 8:31/mile 10K 20 M 14 57 55-59 2 WHISPERING PINES NC
View Video 87 KATE REECE 54:22.18 53:28.90 17:15/mile 5K 65 F 43 33 30-34 6 WINSTON-SALEM NC
View Video 86 KATHRYN GAMBLE 54:24.00 53:30.69 17:15/mile 5K 66 F 44 61 60-64 4 RALEIGH NC
View Video 514 JOE BYERLY 54:05.11 53:44.04 8:40/mile 10K 21 M 15 36 35-39 3 WHISPERING PINES NC
View Video 84 JENNIFER SMITH 54:43.35 54:07.76 17:27/mile 5K 67 F 45 46 45-49 9 GREENVILLE SC
View Video 72 GINA HARTNESS 54:44.01 54:08.39 17:27/mile 5K 68 F 46 46 45-49 10 RALEIGH NC
View Video 506 HOPE BOS 54:38.59 54:16.76 8:45/mile 10K 22 F 7 29 25-29 1 SOUTHERN PINES NC
View Video 559 JILL MCCURRY 54:49.07 54:29.92 8:47/mile 10K 23 F 8 38 35-39 2 PINEHURST NC
View Video 540 JESSICA GOODINE 54:51.35 54:35.59 8:48/mile 10K 24 F 9 34 30-34 3 SOUTHERN PINES NC
View Video 589 MIKE WOODHEAD 55:43.89 54:50.56 8:50/mile 10K 25 M 16 33 30-34 3 SOUTHERN PINES NC
View Video 569 BRETT SANBORN 56:41.80 56:10.39 9:03/mile 10K 26 M 17 38 35-39 4 PINEHURST NC
View Video 567 CAROLE ROBINETTE 57:10.29 56:15.68 9:04/mile 10K 27 F 10 40 40-44 2 PITTSBORO NC
View Video 29 LEJLA HADZIKADIC GUSIC 58:09.77 57:19.12 18:29/mile 5K 69 F 47 40 40-44 2 CHARLOTTE NC
View Video 78 HADLEY SHARP 58:09.72 57:20.49 18:29/mile 5K 70 F 48 38 35-39 10 CHARLOTTE NC
View Video 9 WENDY BRICK 58:10.43 57:20.67 18:29/mile 5K 71 F 49 56 55-59 3 CHARLOTTE NC
View Video 62 LYNETTE SANBORN 57:53.32 57:21.94 18:30/mile 5K 72 F 50 38 35-39 11 PINEHURST NC
View Video 68 JULIE WEST 57:54.66 57:22.72 18:30/mile 5K 73 F 51 45 45-49 11 PINEHURST NC